sensor_id;sensor_type;location;lat;lon;timestamp;pressure;altitude;pressure_sealevel;temperature;humidity
71964;BME280;59834;52.124;5.422;2023-03-07T00:01:27;99864.72;;;3.96;100.00
71964;BME280;59834;52.124;5.422;2023-03-07T00:03:54;99858.91;;;3.91;100.00
71964;BME280;59834;52.124;5.422;2023-03-07T00:06:21;99861.81;;;3.85;100.00
71964;BME280;59834;52.124;5.422;2023-03-07T00:08:51;99866.41;;;3.80;100.00
71964;BME280;59834;52.124;5.422;2023-03-07T00:11:18;99857.81;;;3.80;100.00
71964;BME280;59834;52.124;5.422;2023-03-07T00:13:45;99869.00;;;3.80;100.00
71964;BME280;59834;52.124;5.422;2023-03-07T00:16:14;99868.31;;;3.76;100.00
71964;BME280;59834;52.124;5.422;2023-03-07T00:18:41;99865.88;;;3.73;100.00
71964;BME280;59834;52.124;5.422;2023-03-07T00:21:12;99868.47;;;3.73;100.00
71964;BME280;59834;52.124;5.422;2023-03-07T00:23:41;99868.47;;;3.73;100.00
71964;BME280;59834;52.124;5.422;2023-03-07T00:26:12;99874.56;;;3.72;100.00
71964;BME280;59834;52.124;5.422;2023-03-07T00:28:39;99863.28;;;3.73;100.00
71964;BME280;59834;52.124;5.422;2023-03-07T00:31:08;99859.09;;;3.71;100.00
71964;BME280;59834;52.124;5.422;2023-03-07T00:33:35;99863.44;;;3.70;100.00
71964;BME280;59834;52.124;5.422;2023-03-07T00:36:21;99855.69;;;3.70;100.00
71964;BME280;59834;52.124;5.422;2023-03-07T00:38:49;99865.19;;;3.70;100.00
71964;BME280;59834;52.124;5.422;2023-03-07T00:41:19;99866.03;;;3.70;100.00
71964;BME280;59834;52.124;5.422;2023-03-07T00:43:46;99858.28;;;3.70;100.00
71964;BME280;59834;52.124;5.422;2023-03-07T00:46:13;99856.59;;;3.69;100.00
71964;BME280;59834;52.124;5.422;2023-03-07T00:48:40;99848.91;;;3.68;100.00
71964;BME280;59834;52.124;5.422;2023-03-07T00:51:09;99860.09;;;3.68;100.00
71964;BME280;59834;52.124;5.422;2023-03-07T00:53:37;99854.91;;;3.68;100.00
71964;BME280;59834;52.124;5.422;2023-03-07T00:56:06;99851.44;;;3.69;100.00
71964;BME280;59834;52.124;5.422;2023-03-07T00:58:35;99846.25;;;3.69;100.00
71964;BME280;59834;52.124;5.422;2023-03-07T01:01:04;99851.34;;;3.71;100.00
71964;BME280;59834;52.124;5.422;2023-03-07T01:03:32;99849.59;;;3.71;100.00
71964;BME280;59834;52.124;5.422;2023-03-07T01:06:13;99844.41;;;3.71;100.00
71964;BME280;59834;52.124;5.422;2023-03-07T01:08:40;99847.78;;;3.73;100.00
71964;BME280;59834;52.124;5.422;2023-03-07T01:11:07;99845.91;;;3.75;100.00
71964;BME280;59834;52.124;5.422;2023-03-07T01:13:35;99855.28;;;3.78;100.00
71964;BME280;59834;52.124;5.422;2023-03-07T01:16:12;99864.75;;;3.79;100.00
71964;BME280;59834;52.124;5.422;2023-03-07T01:18:39;99849.28;;;3.77;100.00
71964;BME280;59834;52.124;5.422;2023-03-07T01:21:18;99851.03;;;3.77;100.00
71964;BME280;59834;52.124;5.422;2023-03-07T01:23:45;99846.78;;;3.76;100.00
71964;BME280;59834;52.124;5.422;2023-03-07T01:26:13;99840.75;;;3.75;100.00
71964;BME280;59834;52.124;5.422;2023-03-07T01:28:40;99838.25;;;3.74;100.00
71964;BME280;59834;52.124;5.422;2023-03-07T01:31:07;99842.59;;;3.73;100.00
71964;BME280;59834;52.124;5.422;2023-03-07T01:33:34;99844.34;;;3.73;100.00
71964;BME280;59834;52.124;5.422;2023-03-07T01:36:00;99838.50;;;3.69;100.00
71964;BME280;59834;52.124;5.422;2023-03-07T01:38:27;99839.38;;;3.68;100.00
71964;BME280;59834;52.124;5.422;2023-03-07T01:40:54;99841.13;;;3.68;100.00
71964;BME280;59834;52.124;5.422;2023-03-07T01:43:21;99847.25;;;3.67;100.00
71964;BME280;59834;52.124;5.422;2023-03-07T01:48:15;99825.84;;;3.63;100.00
71964;BME280;59834;52.124;5.422;2023-03-07T01:50:42;99831.03;;;3.63;100.00
71964;BME280;59834;52.124;5.422;2023-03-07T01:53:10;99826.00;;;3.60;100.00
71964;BME280;59834;52.124;5.422;2023-03-07T01:55:37;99827.69;;;3.61;100.00
71964;BME280;59834;52.124;5.422;2023-03-07T01:58:09;99822.66;;;3.58;100.00
71964;BME280;59834;52.124;5.422;2023-03-07T02:00:38;99817.63;;;3.55;100.00
71964;BME280;59834;52.124;5.422;2023-03-07T02:05:38;99818.81;;;3.49;100.00
71964;BME280;59834;52.124;5.422;2023-03-07T02:08:08;99816.22;;;3.49;100.00
71964;BME280;59834;52.124;5.422;2023-03-07T02:10:37;99819.78;;;3.47;100.00
71964;BME280;59834;52.124;5.422;2023-03-07T02:13:05;99817.25;;;3.45;100.00
71964;BME280;59834;52.124;5.422;2023-03-07T02:15:33;99812.09;;;3.45;100.00
71964;BME280;59834;52.124;5.422;2023-03-07T02:18:00;99815.69;;;3.43;100.00
71964;BME280;59834;52.124;5.422;2023-03-07T02:20:38;99813.09;;;3.43;100.00
71964;BME280;59834;52.124;5.422;2023-03-07T02:23:08;99807.94;;;3.43;100.00
71964;BME280;59834;52.124;5.422;2023-03-07T02:25:59;99799.34;;;3.42;100.00
71964;BME280;59834;52.124;5.422;2023-03-07T02:28:27;99801.06;;;3.42;100.00
71964;BME280;59834;52.124;5.422;2023-03-07T02:30:56;99801.06;;;3.42;100.00
71964;BME280;59834;52.124;5.422;2023-03-07T02:33:24;99789.88;;;3.41;100.00
71964;BME280;59834;52.124;5.422;2023-03-07T02:35:56;99787.38;;;3.40;100.00
71964;BME280;59834;52.124;5.422;2023-03-07T02:38:23;99782.94;;;3.42;100.00
71964;BME280;59834;52.124;5.422;2023-03-07T02:40:51;99775.38;;;3.39;100.00
71964;BME280;59834;52.124;5.422;2023-03-07T02:43:20;99780.53;;;3.39;100.00
71964;BME280;59834;52.124;5.422;2023-03-07T02:45:47;99776.19;;;3.39;100.00
71964;BME280;59834;52.124;5.422;2023-03-07T02:48:14;99777.97;;;3.39;100.00
71964;BME280;59834;52.124;5.422;2023-03-07T02:50:40;99784.78;;;3.40;100.00
71964;BME280;59834;52.124;5.422;2023-03-07T02:53:07;99785.72;;;3.39;100.00
71964;BME280;59834;52.124;5.422;2023-03-07T02:55:33;99786.47;;;3.41;100.00
71964;BME280;59834;52.124;5.422;2023-03-07T02:58:00;99785.63;;;3.40;100.00
71964;BME280;59834;52.124;5.422;2023-03-07T03:00:26;99785.63;;;3.40;100.00
71964;BME280;59834;52.124;5.422;2023-03-07T03:02:53;99788.22;;;3.40;100.00
71964;BME280;59834;52.124;5.422;2023-03-07T03:05:20;99780.38;;;3.42;100.00
71964;BME280;59834;52.124;5.422;2023-03-07T03:07:47;99780.38;;;3.42;100.00
71964;BME280;59834;52.124;5.422;2023-03-07T03:10:14;99780.38;;;3.42;100.00
71964;BME280;59834;52.124;5.422;2023-03-07T03:12:41;99773.53;;;3.41;100.00
71964;BME280;59834;52.124;5.422;2023-03-07T03:15:08;99777.03;;;3.40;100.00
71964;BME280;59834;52.124;5.422;2023-03-07T03:17:34;99770.19;;;3.39;100.00
71964;BME280;59834;52.124;5.422;2023-03-07T03:20:02;99770.34;;;3.36;100.00
71964;BME280;59834;52.124;5.422;2023-03-07T03:22:39;99773.84;;;3.35;100.00
71964;BME280;59834;52.124;5.422;2023-03-07T03:25:10;99768.75;;;3.33;100.00
71964;BME280;59834;52.124;5.422;2023-03-07T03:27:37;99760.16;;;3.33;100.00
71964;BME280;59834;52.124;5.422;2023-03-07T03:30:05;99764.41;;;3.34;100.00
71964;BME280;59834;52.124;5.422;2023-03-07T03:32:36;99770.50;;;3.33;100.00
71964;BME280;59834;52.124;5.422;2023-03-07T03:35:03;99764.50;;;3.32;100.00
71964;BME280;59834;52.124;5.422;2023-03-07T03:37:31;99768.81;;;3.31;100.00
71964;BME280;59834;52.124;5.422;2023-03-07T03:39:57;99755.97;;;3.30;100.00
71964;BME280;59834;52.124;5.422;2023-03-07T03:42:24;99753.28;;;3.31;100.00
71964;BME280;59834;52.124;5.422;2023-03-07T03:44:50;99752.56;;;3.29;100.00
71964;BME280;59834;52.124;5.422;2023-03-07T03:47:17;99758.56;;;3.30;100.00
71964;BME280;59834;52.124;5.422;2023-03-07T03:49:43;99758.56;;;3.30;100.00
71964;BME280;59834;52.124;5.422;2023-03-07T03:52:10;99759.53;;;3.27;100.00
71964;BME280;59834;52.124;5.422;2023-03-07T03:54:37;99760.47;;;3.26;100.00
71964;BME280;59834;52.124;5.422;2023-03-07T03:57:04;99749.28;;;3.26;100.00
71964;BME280;59834;52.124;5.422;2023-03-07T03:59:30;99762.13;;;3.27;100.00
71964;BME280;59834;52.124;5.422;2023-03-07T04:01:57;99759.47;;;3.29;100.00
71964;BME280;59834;52.124;5.422;2023-03-07T04:04:23;99757.63;;;3.31;100.00
71964;BME280;59834;52.124;5.422;2023-03-07T04:06:50;99750.81;;;3.30;100.00
71964;BME280;59834;52.124;5.422;2023-03-07T04:09:16;99748.13;;;3.31;100.00
71964;BME280;59834;52.124;5.422;2023-03-07T04:11:43;99747.22;;;3.33;100.00
71964;BME280;59834;52.124;5.422;2023-03-07T04:14:09;99745.38;;;3.35;100.00
71964;BME280;59834;52.124;5.422;2023-03-07T04:16:35;99745.47;;;3.33;100.00
71964;BME280;59834;52.124;5.422;2023-03-07T04:19:02;99744.50;;;3.36;100.00
71964;BME280;59834;52.124;5.422;2023-03-07T04:21:28;99737.56;;;3.36;100.00
71964;BME280;59834;52.124;5.422;2023-03-07T04:23:55;99740.97;;;3.37;100.00
71964;BME280;59834;52.124;5.422;2023-03-07T04:26:23;99733.28;;;3.35;100.00
71964;BME280;59834;52.124;5.422;2023-03-07T04:28:50;99731.56;;;3.36;100.00
71964;BME280;59834;52.124;5.422;2023-03-07T04:31:19;99731.56;;;3.36;100.00
71964;BME280;59834;52.124;5.422;2023-03-07T04:33:46;99725.47;;;3.37;100.00
71964;BME280;59834;52.124;5.422;2023-03-07T04:36:14;99723.63;;;3.39;100.00
71964;BME280;59834;52.124;5.422;2023-03-07T04:38:45;99722.88;;;3.37;100.00
71964;BME280;59834;52.124;5.422;2023-03-07T04:41:13;99714.19;;;3.38;100.00
71964;BME280;59834;52.124;5.422;2023-03-07T04:43:40;99716.78;;;3.38;100.00
71964;BME280;59834;52.124;5.422;2023-03-07T04:46:08;99714.28;;;3.36;100.00
71964;BME280;59834;52.124;5.422;2023-03-07T04:48:35;99723.78;;;3.36;100.00
71964;BME280;59834;52.124;5.422;2023-03-07T04:51:02;99721.13;;;3.37;100.00
71964;BME280;59834;52.124;5.422;2023-03-07T04:53:28;99717.69;;;3.37;100.00
71964;BME280;59834;52.124;5.422;2023-03-07T04:55:59;99716.03;;;3.36;100.00
71964;BME280;59834;52.124;5.422;2023-03-07T04:58:27;99718.69;;;3.34;100.00
71964;BME280;59834;52.124;5.422;2023-03-07T05:00:54;99710.94;;;3.34;100.00
71964;BME280;59834;52.124;5.422;2023-03-07T05:03:23;99712.69;;;3.34;100.00
71964;BME280;59834;52.124;5.422;2023-03-07T05:05:49;99708.59;;;3.29;100.00
71964;BME280;59834;52.124;5.422;2023-03-07T05:08:16;99710.25;;;3.30;100.00
71964;BME280;59834;52.124;5.422;2023-03-07T05:10:42;99709.47;;;3.28;100.00
71964;BME280;59834;52.124;5.422;2023-03-07T05:13:09;99712.06;;;3.28;100.00
71964;BME280;59834;52.124;5.422;2023-03-07T05:15:36;99703.56;;;3.26;100.00
71964;BME280;59834;52.124;5.422;2023-03-07T05:18:03;99721.72;;;3.25;100.00
71964;BME280;59834;52.124;5.422;2023-03-07T05:20:30;99718.47;;;3.21;100.00
71964;BME280;59834;52.124;5.422;2023-03-07T05:22:56;99727.25;;;3.19;100.00
71964;BME280;59834;52.124;5.422;2023-03-07T05:25:23;99724.81;;;3.16;100.00
71964;BME280;59834;52.124;5.422;2023-03-07T05:27:49;99721.53;;;3.12;100.00
71964;BME280;59834;52.124;5.422;2023-03-07T05:30:16;99720.00;;;3.08;100.00
71964;BME280;59834;52.124;5.422;2023-03-07T05:32:42;99720.16;;;3.05;100.00
71964;BME280;59834;52.124;5.422;2023-03-07T05:35:10;99719.63;;;2.98;100.00
71964;BME280;59834;52.124;5.422;2023-03-07T05:37:37;99715.53;;;2.94;100.00
71964;BME280;59834;52.124;5.422;2023-03-07T05:40:04;99719.97;;;2.92;100.00
71964;BME280;59834;52.124;5.422;2023-03-07T05:42:35;99723.91;;;2.82;100.00
71964;BME280;59834;52.124;5.422;2023-03-07T05:45:03;99733.16;;;2.69;99.96
71964;BME280;59834;52.124;5.422;2023-03-07T05:47:31;99739.47;;;2.63;100.00
71964;BME280;59834;52.124;5.422;2023-03-07T05:49:58;99734.44;;;2.60;100.00
71964;BME280;59834;52.124;5.422;2023-03-07T05:52:25;99745.06;;;2.54;99.42
71964;BME280;59834;52.124;5.422;2023-03-07T05:54:51;99743.53;;;2.50;99.06
71964;BME280;59834;52.124;5.422;2023-03-07T05:57:18;99738.81;;;2.41;99.45
71964;BME280;59834;52.124;5.422;2023-03-07T05:59:44;99746.63;;;2.39;99.04
71964;BME280;59834;52.124;5.422;2023-03-07T06:02:11;99750.09;;;2.38;99.28
71964;BME280;59834;52.124;5.422;2023-03-07T06:04:37;99751.13;;;2.35;99.26
71964;BME280;59834;52.124;5.422;2023-03-07T06:07:04;99749.59;;;2.31;100.00
71964;BME280;59834;52.124;5.422;2023-03-07T06:09:30;99746.22;;;2.29;99.58
71964;BME280;59834;52.124;5.422;2023-03-07T06:11:57;99743.78;;;2.26;99.96
71964;BME280;59834;52.124;5.422;2023-03-07T06:14:23;99742.31;;;2.21;99.93
71964;BME280;59834;52.124;5.422;2023-03-07T06:16:50;99744.22;;;2.17;99.79
71964;BME280;59834;52.124;5.422;2023-03-07T06:19:16;99748.75;;;2.12;100.00
71964;BME280;59834;52.124;5.422;2023-03-07T06:21:43;99750.66;;;2.08;100.00
71964;BME280;59834;52.124;5.422;2023-03-07T06:24:09;99756.84;;;2.04;100.00
71964;BME280;59834;52.124;5.422;2023-03-07T06:26:36;99767.31;;;2.01;100.00
71964;BME280;59834;52.124;5.422;2023-03-07T06:29:02;99760.59;;;1.97;100.00
71964;BME280;59834;52.124;5.422;2023-03-07T06:31:29;99767.59;;;1.95;100.00
71964;BME280;59834;52.124;5.422;2023-03-07T06:33:56;99766.81;;;1.93;100.00
71964;BME280;59834;52.124;5.422;2023-03-07T06:36:23;99758.47;;;1.88;100.00
71964;BME280;59834;52.124;5.422;2023-03-07T06:38:49;99757.03;;;1.81;100.00
71964;BME280;59834;52.124;5.422;2023-03-07T06:41:16;99757.91;;;1.81;100.00
71964;BME280;59834;52.124;5.422;2023-03-07T06:43:42;99762.28;;;1.79;100.00
71964;BME280;59834;52.124;5.422;2023-03-07T06:46:09;99766.75;;;1.76;100.00
71964;BME280;59834;52.124;5.422;2023-03-07T06:48:35;99773.66;;;1.75;100.00
71964;BME280;59834;52.124;5.422;2023-03-07T06:51:06;99774.53;;;1.74;100.00
71964;BME280;59834;52.124;5.422;2023-03-07T06:53:33;99776.41;;;1.71;100.00
71964;BME280;59834;52.124;5.422;2023-03-07T06:56:00;99772.25;;;1.68;100.00
71964;BME280;59834;52.124;5.422;2023-03-07T06:58:26;99775.53;;;1.72;100.00
71964;BME280;59834;52.124;5.422;2023-03-07T07:00:53;99774.69;;;1.71;100.00
71964;BME280;59834;52.124;5.422;2023-03-07T07:03:20;99768.53;;;1.74;100.00
71964;BME280;59834;52.124;5.422;2023-03-07T07:05:46;99780.56;;;1.75;100.00
71964;BME280;59834;52.124;5.422;2023-03-07T07:08:13;99780.47;;;1.76;100.00
71964;BME280;59834;52.124;5.422;2023-03-07T07:10:39;99782.13;;;1.77;100.00
71964;BME280;59834;52.124;5.422;2023-03-07T07:13:06;99778.66;;;1.78;100.00
71964;BME280;59834;52.124;5.422;2023-03-07T07:15:33;99782.84;;;1.81;100.00
71964;BME280;59834;52.124;5.422;2023-03-07T07:17:59;99779.50;;;1.79;100.00
71964;BME280;59834;52.124;5.422;2023-03-07T07:20:27;99775.41;;;1.75;100.00
71964;BME280;59834;52.124;5.422;2023-03-07T07:22:53;99765.91;;;1.75;100.00
71964;BME280;59834;52.124;5.422;2023-03-07T07:25:20;99768.34;;;1.78;100.00
71964;BME280;59834;52.124;5.422;2023-03-07T07:27:46;99767.44;;;1.79;100.00
71964;BME280;59834;52.124;5.422;2023-03-07T07:30:13;99764.72;;;1.82;100.00
71964;BME280;59834;52.124;5.422;2023-03-07T07:32:39;99766.59;;;1.79;100.00
71964;BME280;59834;52.124;5.422;2023-03-07T07:35:06;99765.91;;;1.75;100.00
71964;BME280;59834;52.124;5.422;2023-03-07T07:37:33;99766.59;;;1.79;100.00
71964;BME280;59834;52.124;5.422;2023-03-07T07:40:00;99762.97;;;1.83;100.00
71964;BME280;59834;52.124;5.422;2023-03-07T07:42:26;99762.72;;;1.89;100.00
71964;BME280;59834;52.124;5.422;2023-03-07T07:44:53;99770.38;;;1.91;100.00
71964;BME280;59834;52.124;5.422;2023-03-07T07:47:19;99772.75;;;1.95;100.00
71964;BME280;59834;52.124;5.422;2023-03-07T07:49:46;99772.75;;;1.95;100.00
71964;BME280;59834;52.124;5.422;2023-03-07T07:52:12;99771.00;;;1.96;100.00
71964;BME280;59834;52.124;5.422;2023-03-07T07:54:39;99773.72;;;1.93;100.00
71964;BME280;59834;52.124;5.422;2023-03-07T07:57:05;99775.41;;;1.94;100.00
71964;BME280;59834;52.124;5.422;2023-03-07T07:59:35;99777.09;;;1.95;100.00
71964;BME280;59834;52.124;5.422;2023-03-07T08:05:20;99786.41;;;1.97;100.00
71964;BME280;59834;52.124;5.422;2023-03-07T08:07:47;99786.75;;;1.89;100.00
71964;BME280;59834;52.124;5.422;2023-03-07T08:10:17;99792.13;;;1.85;100.00
71964;BME280;59834;52.124;5.422;2023-03-07T08:12:47;99790.53;;;1.82;100.00
71964;BME280;59834;52.124;5.422;2023-03-07T08:15:17;99787.44;;;1.74;100.00
71964;BME280;59834;52.124;5.422;2023-03-07T08:17:47;99791.56;;;1.78;100.00
71964;BME280;59834;52.124;5.422;2023-03-07T08:20:14;99784.59;;;1.80;100.00
71964;BME280;59834;52.124;5.422;2023-03-07T08:22:41;99803.91;;;1.91;100.00
71964;BME280;59834;52.124;5.422;2023-03-07T08:25:15;99795.06;;;1.96;100.00
71964;BME280;59834;52.124;5.422;2023-03-07T08:27:43;99797.78;;;1.93;100.00
71964;BME280;59834;52.124;5.422;2023-03-07T08:30:10;99788.03;;;2.00;100.00
71964;BME280;59834;52.124;5.422;2023-03-07T08:32:37;99797.16;;;2.07;100.00
71964;BME280;59834;52.124;5.422;2023-03-07T08:35:04;99793.41;;;2.14;100.00
71964;BME280;59834;52.124;5.422;2023-03-07T08:37:31;99802.84;;;2.15;100.00
71964;BME280;59834;52.124;5.422;2023-03-07T08:39:58;99801.97;;;2.15;100.00
71964;BME280;59834;52.124;5.422;2023-03-07T08:42:24;99797.81;;;2.12;100.00
71964;BME280;59834;52.124;5.422;2023-03-07T08:44:51;99792.69;;;2.10;100.00
71964;BME280;59834;52.124;5.422;2023-03-07T08:47:17;99790.06;;;2.12;100.00
71964;BME280;59834;52.124;5.422;2023-03-07T08:49:44;99795.22;;;2.12;100.00
71964;BME280;59834;52.124;5.422;2023-03-07T08:52:10;99794.22;;;2.15;100.00
71964;BME280;59834;52.124;5.422;2023-03-07T08:54:37;99791.47;;;2.19;100.00
71964;BME280;59834;52.124;5.422;2023-03-07T08:57:03;99796.63;;;2.19;100.00
71964;BME280;59834;52.124;5.422;2023-03-07T08:59:30;99792.56;;;2.13;100.00
71964;BME280;59834;52.124;5.422;2023-03-07T09:01:56;99787.81;;;2.23;100.00
71964;BME280;59834;52.124;5.422;2023-03-07T09:04:23;99803.72;;;2.33;100.00
71964;BME280;59834;52.124;5.422;2023-03-07T09:06:50;99794.75;;;2.42;100.00
71964;BME280;59834;52.124;5.422;2023-03-07T09:09:16;99790.88;;;2.50;100.00
71964;BME280;59834;52.124;5.422;2023-03-07T09:11:43;99795.06;;;2.53;100.00
71964;BME280;59834;52.124;5.422;2023-03-07T09:14:09;99795.19;;;2.50;100.00
71964;BME280;59834;52.124;5.422;2023-03-07T09:16:36;99794.38;;;2.49;100.00
71964;BME280;59834;52.124;5.422;2023-03-07T09:19:02;99788.38;;;2.49;100.00
71964;BME280;59834;52.124;5.422;2023-03-07T09:21:30;99784.19;;;2.46;100.00
71964;BME280;59834;52.124;5.422;2023-03-07T09:23:56;99788.16;;;2.53;100.00
71964;BME280;59834;52.124;5.422;2023-03-07T09:26:23;99787.03;;;2.59;100.00
71964;BME280;59834;52.124;5.422;2023-03-07T09:28:49;99792.59;;;2.69;100.00
71964;BME280;59834;52.124;5.422;2023-03-07T09:31:16;99786.28;;;2.74;100.00
71964;BME280;59834;52.124;5.422;2023-03-07T09:33:42;99782.88;;;2.74;100.00
71964;BME280;59834;52.124;5.422;2023-03-07T09:36:12;99785.06;;;2.81;100.00
71964;BME280;59834;52.124;5.422;2023-03-07T09:38:39;99784.94;;;2.84;100.00
71964;BME280;59834;52.124;5.422;2023-03-07T09:44:07;99794.97;;;2.91;100.00
71964;BME280;59834;52.124;5.422;2023-03-07T09:49:20;99787.84;;;2.96;100.00
71964;BME280;59834;52.124;5.422;2023-03-07T09:51:52;99797.78;;;2.86;100.00
71964;BME280;59834;52.124;5.422;2023-03-07T09:54:41;99795.59;;;2.96;100.00
71964;BME280;59834;52.124;5.422;2023-03-07T09:57:21;99791.66;;;3.06;100.00
71964;BME280;59834;52.124;5.422;2023-03-07T09:59:55;99785.78;;;3.20;100.00
71964;BME280;59834;52.124;5.422;2023-03-07T10:03:03;99786.34;;;3.09;99.95
71964;BME280;59834;52.124;5.422;2023-03-07T10:05:40;99785.72;;;3.04;99.69
71964;BME280;59834;52.124;5.422;2023-03-07T10:08:12;99786.38;;;3.07;100.00
71964;BME280;59834;52.124;5.422;2023-03-07T10:10:46;99784.50;;;3.11;100.00
71964;BME280;59834;52.124;5.422;2023-03-07T10:13:22;99794.47;;;3.19;99.83
71964;BME280;59834;52.124;5.422;2023-03-07T10:16:19;99796.66;;;3.26;99.49
71964;BME280;59834;52.124;5.422;2023-03-07T10:18:52;99798.88;;;3.34;99.88
71964;BME280;59834;52.124;5.422;2023-03-07T10:27:06;99797.25;;;3.31;100.00
71964;BME280;59834;52.124;5.422;2023-03-07T10:29:49;99799.25;;;3.26;100.00
71964;BME280;59834;52.124;5.422;2023-03-07T10:37:54;99807.31;;;3.20;99.96
71964;BME280;59834;52.124;5.422;2023-03-07T10:40:26;99803.91;;;3.20;99.56
71964;BME280;59834;52.124;5.422;2023-03-07T10:42:54;99801.38;;;3.18;99.00
71964;BME280;59834;52.124;5.422;2023-03-07T10:45:22;99800.00;;;3.28;99.26
71964;BME280;59834;52.124;5.422;2023-03-07T10:47:48;99802.28;;;3.35;98.60
71964;BME280;59834;52.124;5.422;2023-03-07T10:50:23;99801.59;;;3.48;98.46
71964;BME280;59834;52.124;5.422;2023-03-07T10:52:55;99811.53;;;3.73;97.56
71964;BME280;59834;52.124;5.422;2023-03-07T10:58:18;99802.56;;;3.96;97.09
71964;BME280;59834;52.124;5.422;2023-03-07T11:00:56;99810.75;;;4.05;97.31
71964;BME280;59834;52.124;5.422;2023-03-07T11:06:29;99796.75;;;4.24;96.51
71964;BME280;59834;52.124;5.422;2023-03-07T11:08:56;99799.44;;;4.23;95.36
71964;BME280;59834;52.124;5.422;2023-03-07T11:11:32;99798.41;;;4.10;94.85
71964;BME280;59834;52.124;5.422;2023-03-07T11:14:10;99801.56;;;3.99;95.28
71964;BME280;59834;52.124;5.422;2023-03-07T11:16:49;99808.69;;;4.11;95.57
71964;BME280;59834;52.124;5.422;2023-03-07T11:19:35;99810.75;;;4.05;94.97
71964;BME280;59834;52.124;5.422;2023-03-07T11:22:27;99816.31;;;3.81;95.89
71964;BME280;59834;52.124;5.422;2023-03-07T11:27:35;99832.75;;;2.93;95.81
71964;BME280;59834;52.124;5.422;2023-03-07T11:32:33;99827.31;;;2.25;96.15
71964;BME280;59834;52.124;5.422;2023-03-07T11:35:12;99831.78;;;2.22;97.06
71964;BME280;59834;52.124;5.422;2023-03-07T11:40:38;99836.44;;;2.70;96.62
71964;BME280;59834;52.124;5.422;2023-03-07T11:46:10;99830.28;;;3.09;95.74
71964;BME280;59834;52.124;5.422;2023-03-07T11:51:55;99826.03;;;3.25;95.68
71964;BME280;59834;52.124;5.422;2023-03-07T12:05:37;99829.22;;;3.48;95.36
71964;BME280;59834;52.124;5.422;2023-03-07T12:14:55;99834.22;;;3.68;94.60
71964;BME280;59834;52.124;5.422;2023-03-07T12:17:41;99825.72;;;3.66;94.92
71964;BME280;59834;52.124;5.422;2023-03-07T12:20:17;99828.91;;;3.54;94.80
71964;BME280;59834;52.124;5.422;2023-03-07T12:25:44;99837.63;;;2.82;94.84
71964;BME280;59834;52.124;5.422;2023-03-07T12:30:58;99835.22;;;2.77;96.60
71964;BME280;59834;52.124;5.422;2023-03-07T12:33:34;99843.00;;;2.95;95.23
71964;BME280;59834;52.124;5.422;2023-03-07T12:36:10;99848.88;;;2.98;94.81
71964;BME280;59834;52.124;5.422;2023-03-07T12:44:43;99844.19;;;3.24;93.44
71964;BME280;59834;52.124;5.422;2023-03-07T12:50:09;99840.47;;;3.12;92.85
71964;BME280;59834;52.124;5.422;2023-03-07T12:52:50;99837.41;;;3.04;93.51
71964;BME280;59834;52.124;5.422;2023-03-07T12:55:47;99834.28;;;2.97;92.90
71964;BME280;59834;52.124;5.422;2023-03-07T12:58:41;99839.78;;;3.09;93.09
71964;BME280;59834;52.124;5.422;2023-03-07T13:01:14;99838.78;;;3.11;93.21
71964;BME280;59834;52.124;5.422;2023-03-07T13:06:41;99840.63;;;3.26;92.65
71964;BME280;59834;52.124;5.422;2023-03-07T13:09:17;99838.19;;;3.23;92.78
71964;BME280;59834;52.124;5.422;2023-03-07T13:19:56;99841.13;;;3.68;91.94
71964;BME280;59834;52.124;5.422;2023-03-07T13:24:51;99840.84;;;3.74;91.62
71964;BME280;59834;52.124;5.422;2023-03-07T13:40:26;99847.78;;;3.56;91.05
71964;BME280;59834;52.124;5.422;2023-03-07T13:42:54;99833.31;;;3.52;91.21
71964;BME280;59834;52.124;5.422;2023-03-07T13:58:45;99847.91;;;3.70;92.75
71964;BME280;59834;52.124;5.422;2023-03-07T14:01:21;99852.13;;;3.89;93.15
71964;BME280;59834;52.124;5.422;2023-03-07T14:04:11;99849.41;;;3.92;92.55
71964;BME280;59834;52.124;5.422;2023-03-07T14:06:45;99848.81;;;3.87;92.53
71964;BME280;59834;52.124;5.422;2023-03-07T14:09:26;99852.69;;;3.78;92.52
71964;BME280;59834;52.124;5.422;2023-03-07T14:15:38;99867.41;;;3.60;91.94
71964;BME280;59834;52.124;5.422;2023-03-07T14:18:20;99856.31;;;3.41;92.40
71964;BME280;59834;52.124;5.422;2023-03-07T14:21:02;99874.16;;;3.28;93.24
71964;BME280;59834;52.124;5.422;2023-03-07T14:23:57;99872.22;;;3.33;93.75
71964;BME280;59834;52.124;5.422;2023-03-07T14:26:31;99865.03;;;3.38;93.00
71964;BME280;59834;52.124;5.422;2023-03-07T14:29:09;99871.28;;;3.34;93.55
71964;BME280;59834;52.124;5.422;2023-03-07T14:31:40;99876.00;;;3.43;93.62
71964;BME280;59834;52.124;5.422;2023-03-07T14:36:51;99868.00;;;3.48;93.03
71964;BME280;59834;52.124;5.422;2023-03-07T14:39:19;99869.91;;;3.44;93.43
71964;BME280;59834;52.124;5.422;2023-03-07T14:42:18;99870.75;;;3.45;92.66
71964;BME280;59834;52.124;5.422;2023-03-07T14:50:07;99875.47;;;3.37;93.64
71964;BME280;59834;52.124;5.422;2023-03-07T14:52:35;99857.97;;;3.24;92.96
71964;BME280;59834;52.124;5.422;2023-03-07T14:55:03;99870.34;;;3.18;93.48
71964;BME280;59834;52.124;5.422;2023-03-07T14:57:38;99866.00;;;3.18;93.29
71964;BME280;59834;52.124;5.422;2023-03-07T15:00:25;99872.25;;;3.31;93.52
71964;BME280;59834;52.124;5.422;2023-03-07T15:03:01;99869.47;;;3.36;93.84
71964;BME280;59834;52.124;5.422;2023-03-07T15:05:31;99867.41;;;3.43;93.49
71964;BME280;59834;52.124;5.422;2023-03-07T15:07:58;99871.38;;;3.50;93.37
71964;BME280;59834;52.124;5.422;2023-03-07T15:10:36;99874.69;;;3.52;93.04
71964;BME280;59834;52.124;5.422;2023-03-07T15:13:29;99870.00;;;3.43;93.51
71964;BME280;59834;52.124;5.422;2023-03-07T15:15:59;99873.34;;;3.45;92.57
71964;BME280;59834;52.124;5.422;2023-03-07T15:18:36;99867.56;;;3.40;93.03
71964;BME280;59834;52.124;5.422;2023-03-07T15:21:05;99870.44;;;3.34;92.99
71964;BME280;59834;52.124;5.422;2023-03-07T15:23:32;99871.44;;;3.31;92.30
71964;BME280;59834;52.124;5.422;2023-03-07T15:26:02;99869.69;;;3.31;92.71